sensor_id;sensor_type;location;lat;lon;timestamp;temperature;humidity
935;DHT22;454;53.254;10.400;2023-02-01T05:01:28;4.70;99.90
935;DHT22;454;53.254;10.400;2023-02-01T05:03:54;4.70;99.90
935;DHT22;454;53.254;10.400;2023-02-01T05:06:22;4.70;99.90
935;DHT22;454;53.254;10.400;2023-02-01T05:08:48;4.70;99.90
935;DHT22;454;53.254;10.400;2023-02-01T05:11:16;4.70;99.90
935;DHT22;454;53.254;10.400;2023-02-01T05:13:56;4.70;99.90
935;DHT22;454;53.254;10.400;2023-02-01T05:16:23;4.70;99.90
935;DHT22;454;53.254;10.400;2023-02-01T05:18:52;4.60;99.90
935;DHT22;454;53.254;10.400;2023-02-01T05:21:20;4.60;99.90
935;DHT22;454;53.254;10.400;2023-02-01T05:23:47;4.60;99.90
935;DHT22;454;53.254;10.400;2023-02-01T05:26:31;4.50;99.90
935;DHT22;454;53.254;10.400;2023-02-01T05:28:59;4.50;99.90
935;DHT22;454;53.254;10.400;2023-02-01T05:31:26;4.40;99.90
935;DHT22;454;53.254;10.400;2023-02-01T05:33:54;4.40;99.90
935;DHT22;454;53.254;10.400;2023-02-01T05:36:21;4.30;99.90
935;DHT22;454;53.254;10.400;2023-02-01T05:38:47;4.30;99.90
935;DHT22;454;53.254;10.400;2023-02-01T05:41:14;4.30;99.90
935;DHT22;454;53.254;10.400;2023-02-01T05:43:41;4.30;99.90
935;DHT22;454;53.254;10.400;2023-02-01T05:46:08;4.20;99.90
935;DHT22;454;53.254;10.400;2023-02-01T05:48:36;4.20;99.90
935;DHT22;454;53.254;10.400;2023-02-01T05:51:04;4.10;99.90
935;DHT22;454;53.254;10.400;2023-02-01T05:53:31;3.80;99.90
935;DHT22;454;53.254;10.400;2023-02-01T05:55:58;3.50;99.90
935;DHT22;454;53.254;10.400;2023-02-01T05:58:24;3.40;99.90
935;DHT22;454;53.254;10.400;2023-02-01T06:00:51;3.30;99.90
935;DHT22;454;53.254;10.400;2023-02-01T06:03:18;3.20;99.90
935;DHT22;454;53.254;10.400;2023-02-01T06:05:46;3.30;99.90
935;DHT22;454;53.254;10.400;2023-02-01T06:08:14;3.30;99.90
935;DHT22;454;53.254;10.400;2023-02-01T06:10:42;3.30;99.90
935;DHT22;454;53.254;10.400;2023-02-01T06:13:09;3.40;99.90
935;DHT22;454;53.254;10.400;2023-02-01T06:15:36;3.50;99.90
935;DHT22;454;53.254;10.400;2023-02-01T06:18:03;3.50;99.90
935;DHT22;454;53.254;10.400;2023-02-01T06:20:30;3.50;99.90
935;DHT22;454;53.254;10.400;2023-02-01T06:22:57;3.50;99.90
935;DHT22;454;53.254;10.400;2023-02-01T06:25:25;3.40;99.90
935;DHT22;454;53.254;10.400;2023-02-01T06:27:52;3.40;99.90
935;DHT22;454;53.254;10.400;2023-02-01T06:30:19;3.30;99.90
935;DHT22;454;53.254;10.400;2023-02-01T06:32:50;3.30;99.90
935;DHT22;454;53.254;10.400;2023-02-01T06:35:18;3.30;99.90
935;DHT22;454;53.254;10.400;2023-02-01T06:37:45;3.30;99.90
935;DHT22;454;53.254;10.400;2023-02-01T06:40:12;3.30;99.90
935;DHT22;454;53.254;10.400;2023-02-01T06:42:40;3.30;99.90
935;DHT22;454;53.254;10.400;2023-02-01T06:45:08;3.30;99.90
935;DHT22;454;53.254;10.400;2023-02-01T06:47:35;3.30;99.90
935;DHT22;454;53.254;10.400;2023-02-01T06:50:02;3.30;99.90
935;DHT22;454;53.254;10.400;2023-02-01T06:52:28;3.30;99.90
935;DHT22;454;53.254;10.400;2023-02-01T06:54:55;3.20;99.90
935;DHT22;454;53.254;10.400;2023-02-01T06:57:22;3.30;99.90
935;DHT22;454;53.254;10.400;2023-02-01T06:59:50;3.30;99.90
935;DHT22;454;53.254;10.400;2023-02-01T07:02:17;3.30;99.90
935;DHT22;454;53.254;10.400;2023-02-01T07:04:43;3.30;99.90
935;DHT22;454;53.254;10.400;2023-02-01T07:07:10;3.40;99.90
935;DHT22;454;53.254;10.400;2023-02-01T07:09:37;3.40;99.90
935;DHT22;454;53.254;10.400;2023-02-01T07:12:04;3.50;99.90
935;DHT22;454;53.254;10.400;2023-02-01T07:14:31;3.60;99.90
935;DHT22;454;53.254;10.400;2023-02-01T07:16:59;3.60;99.90
935;DHT22;454;53.254;10.400;2023-02-01T07:19:26;3.60;99.90
935;DHT22;454;53.254;10.400;2023-02-01T07:21:53;3.60;99.90
935;DHT22;454;53.254;10.400;2023-02-01T07:24:50;3.70;99.90
935;DHT22;454;53.254;10.400;2023-02-01T07:27:16;3.70;99.90
935;DHT22;454;53.254;10.400;2023-02-01T07:29:43;3.80;99.90
935;DHT22;454;53.254;10.400;2023-02-01T07:32:11;3.90;99.90
935;DHT22;454;53.254;10.400;2023-02-01T07:34:38;3.90;99.90
935;DHT22;454;53.254;10.400;2023-02-01T07:37:05;4.00;99.90
935;DHT22;454;53.254;10.400;2023-02-01T07:39:32;4.00;99.90
935;DHT22;454;53.254;10.400;2023-02-01T07:41:58;4.10;99.90
935;DHT22;454;53.254;10.400;2023-02-01T07:44:25;4.10;99.90
935;DHT22;454;53.254;10.400;2023-02-01T07:46:52;4.10;99.90
935;DHT22;454;53.254;10.400;2023-02-01T07:49:20;4.20;99.90
935;DHT22;454;53.254;10.400;2023-02-01T07:51:47;4.20;99.90
935;DHT22;454;53.254;10.400;2023-02-01T07:54:13;4.30;99.90
935;DHT22;454;53.254;10.400;2023-02-01T07:56:40;4.30;99.90
935;DHT22;454;53.254;10.400;2023-02-01T07:59:07;4.40;99.90
935;DHT22;454;53.254;10.400;2023-02-01T08:01:34;4.50;99.90
935;DHT22;454;53.254;10.400;2023-02-01T08:04:01;4.50;99.90
935;DHT22;454;53.254;10.400;2023-02-01T08:06:30;4.60;99.90
935;DHT22;454;53.254;10.400;2023-02-01T08:08:57;4.60;99.90
935;DHT22;454;53.254;10.400;2023-02-01T08:11:25;4.70;99.90
935;DHT22;454;53.254;10.400;2023-02-01T08:13:52;4.80;99.90
935;DHT22;454;53.254;10.400;2023-02-01T08:16:20;4.80;99.90
935;DHT22;454;53.254;10.400;2023-02-01T08:18:47;4.90;99.90
935;DHT22;454;53.254;10.400;2023-02-01T08:21:15;4.90;99.90
935;DHT22;454;53.254;10.400;2023-02-01T08:23:44;4.90;99.90
935;DHT22;454;53.254;10.400;2023-02-01T08:26:12;5.00;99.90
935;DHT22;454;53.254;10.400;2023-02-01T08:28:41;5.00;99.90
935;DHT22;454;53.254;10.400;2023-02-01T08:31:08;5.00;99.90
935;DHT22;454;53.254;10.400;2023-02-01T08:33:36;5.10;99.90
935;DHT22;454;53.254;10.400;2023-02-01T08:36:04;5.10;99.90
935;DHT22;454;53.254;10.400;2023-02-01T08:38:31;5.20;99.90
935;DHT22;454;53.254;10.400;2023-02-01T08:41:04;5.20;99.90
935;DHT22;454;53.254;10.400;2023-02-01T08:43:31;5.20;99.90
935;DHT22;454;53.254;10.400;2023-02-01T08:45:57;5.30;99.90
935;DHT22;454;53.254;10.400;2023-02-01T08:48:24;5.30;99.90
935;DHT22;454;53.254;10.400;2023-02-01T08:50:51;5.30;99.90
935;DHT22;454;53.254;10.400;2023-02-01T08:53:17;5.40;99.90
935;DHT22;454;53.254;10.400;2023-02-01T08:55:45;5.40;99.90
935;DHT22;454;53.254;10.400;2023-02-01T08:58:13;5.60;99.90
935;DHT22;454;53.254;10.400;2023-02-01T09:00:42;5.70;99.90
935;DHT22;454;53.254;10.400;2023-02-01T09:03:10;5.70;99.90
935;DHT22;454;53.254;10.400;2023-02-01T09:05:37;5.70;99.90
935;DHT22;454;53.254;10.400;2023-02-01T09:08:04;5.70;99.90
935;DHT22;454;53.254;10.400;2023-02-01T09:10:31;5.70;99.90
935;DHT22;454;53.254;10.400;2023-02-01T09:12:58;5.70;99.90
935;DHT22;454;53.254;10.400;2023-02-01T09:15:27;5.80;99.90
935;DHT22;454;53.254;10.400;2023-02-01T09:17:53;5.70;99.90
935;DHT22;454;53.254;10.400;2023-02-01T09:20:20;5.80;99.90
935;DHT22;454;53.254;10.400;2023-02-01T09:22:49;5.80;99.90
935;DHT22;454;53.254;10.400;2023-02-01T09:25:16;5.80;99.90
935;DHT22;454;53.254;10.400;2023-02-01T09:27:43;5.70;99.90
935;DHT22;454;53.254;10.400;2023-02-01T09:30:11;5.70;99.90
935;DHT22;454;53.254;10.400;2023-02-01T09:32:39;5.80;99.90
935;DHT22;454;53.254;10.400;2023-02-01T09:35:06;5.80;99.90
935;DHT22;454;53.254;10.400;2023-02-01T09:37:33;5.80;99.90
935;DHT22;454;53.254;10.400;2023-02-01T09:40:00;5.90;99.90
935;DHT22;454;53.254;10.400;2023-02-01T09:45:36;6.10;99.90
935;DHT22;454;53.254;10.400;2023-02-01T09:48:13;6.30;99.90
935;DHT22;454;53.254;10.400;2023-02-01T09:50:44;6.40;99.90
935;DHT22;454;53.254;10.400;2023-02-01T09:53:17;6.40;99.90
935;DHT22;454;53.254;10.400;2023-02-01T09:55:48;6.50;99.90
935;DHT22;454;53.254;10.400;2023-02-01T09:58:21;6.50;99.90
935;DHT22;454;53.254;10.400;2023-02-01T10:00:52;6.60;99.90
935;DHT22;454;53.254;10.400;2023-02-01T10:03:23;6.60;99.90
935;DHT22;454;53.254;10.400;2023-02-01T10:06:10;6.60;99.90
935;DHT22;454;53.254;10.400;2023-02-01T10:08:57;6.70;99.90
935;DHT22;454;53.254;10.400;2023-02-01T10:11:35;6.70;99.90
935;DHT22;454;53.254;10.400;2023-02-01T10:17:07;6.70;99.90
935;DHT22;454;53.254;10.400;2023-02-01T10:19:44;6.60;99.90
935;DHT22;454;53.254;10.400;2023-02-01T10:22:21;6.50;99.90
935;DHT22;454;53.254;10.400;2023-02-01T10:24:53;6.50;99.90
935;DHT22;454;53.254;10.400;2023-02-01T10:27:24;6.40;99.90
935;DHT22;454;53.254;10.400;2023-02-01T10:29:58;6.40;99.90
935;DHT22;454;53.254;10.400;2023-02-01T10:32:29;6.40;99.90
935;DHT22;454;53.254;10.400;2023-02-01T10:35:00;6.40;99.90
935;DHT22;454;53.254;10.400;2023-02-01T10:37:30;6.50;99.90
935;DHT22;454;53.254;10.400;2023-02-01T10:39:59;6.50;99.90
935;DHT22;454;53.254;10.400;2023-02-01T10:42:28;6.50;99.90
935;DHT22;454;53.254;10.400;2023-02-01T10:44:58;6.60;99.90
935;DHT22;454;53.254;10.400;2023-02-01T10:47:26;6.60;99.90
935;DHT22;454;53.254;10.400;2023-02-01T10:49:58;6.60;99.90
935;DHT22;454;53.254;10.400;2023-02-01T10:52:36;6.60;99.90
935;DHT22;454;53.254;10.400;2023-02-01T10:55:27;6.60;99.90
935;DHT22;454;53.254;10.400;2023-02-01T10:57:56;6.80;99.90
935;DHT22;454;53.254;10.400;2023-02-01T11:00:24;6.90;99.90
935;DHT22;454;53.254;10.400;2023-02-01T11:02:51;6.90;99.90
935;DHT22;454;53.254;10.400;2023-02-01T11:05:19;6.90;99.90
935;DHT22;454;53.254;10.400;2023-02-01T11:07:50;6.90;99.90
935;DHT22;454;53.254;10.400;2023-02-01T11:10:37;6.90;99.90
935;DHT22;454;53.254;10.400;2023-02-01T11:13:07;6.90;99.90
935;DHT22;454;53.254;10.400;2023-02-01T11:15:38;6.90;99.90
935;DHT22;454;53.254;10.400;2023-02-01T11:18:15;6.90;99.90
935;DHT22;454;53.254;10.400;2023-02-01T11:20:45;7.00;99.90
935;DHT22;454;53.254;10.400;2023-02-01T11:23:15;7.00;99.90
935;DHT22;454;53.254;10.400;2023-02-01T11:25:49;6.90;99.90
935;DHT22;454;53.254;10.400;2023-02-01T11:28:17;6.90;99.90
935;DHT22;454;53.254;10.400;2023-02-01T11:30:45;7.00;99.90
935;DHT22;454;53.254;10.400;2023-02-01T11:33:15;6.90;99.90
935;DHT22;454;53.254;10.400;2023-02-01T11:35:44;7.00;99.90
935;DHT22;454;53.254;10.400;2023-02-01T11:38:20;7.00;99.90
935;DHT22;454;53.254;10.400;2023-02-01T11:40:48;7.00;99.90
935;DHT22;454;53.254;10.400;2023-02-01T11:43:20;7.00;99.90
935;DHT22;454;53.254;10.400;2023-02-01T11:45:57;7.00;99.90
935;DHT22;454;53.254;10.400;2023-02-01T11:48:25;7.00;99.90
935;DHT22;454;53.254;10.400;2023-02-01T11:51:03;6.90;99.90
935;DHT22;454;53.254;10.400;2023-02-01T11:53:42;6.90;99.90
935;DHT22;454;53.254;10.400;2023-02-01T11:56:19;6.80;99.90
935;DHT22;454;53.254;10.400;2023-02-01T11:59:19;6.80;99.90
935;DHT22;454;53.254;10.400;2023-02-01T12:02:18;6.70;99.90
935;DHT22;454;53.254;10.400;2023-02-01T12:05:11;6.70;99.90
935;DHT22;454;53.254;10.400;2023-02-01T12:07:51;6.70;99.90
935;DHT22;454;53.254;10.400;2023-02-01T12:10:30;6.60;99.90
935;DHT22;454;53.254;10.400;2023-02-01T12:13:10;6.60;99.90
935;DHT22;454;53.254;10.400;2023-02-01T12:15:46;6.60;99.90
935;DHT22;454;53.254;10.400;2023-02-01T12:18:42;6.60;99.90
935;DHT22;454;53.254;10.400;2023-02-01T12:21:22;6.60;99.90
935;DHT22;454;53.254;10.400;2023-02-01T12:24:02;6.60;99.90
935;DHT22;454;53.254;10.400;2023-02-01T12:26:53;6.60;99.90
935;DHT22;454;53.254;10.400;2023-02-01T12:29:54;6.50;99.90
935;DHT22;454;53.254;10.400;2023-02-01T12:32:33;6.50;99.90
935;DHT22;454;53.254;10.400;2023-02-01T12:35:19;6.40;99.90
935;DHT22;454;53.254;10.400;2023-02-01T12:37:57;6.30;99.90
935;DHT22;454;53.254;10.400;2023-02-01T12:40:37;6.10;99.90
935;DHT22;454;53.254;10.400;2023-02-01T12:43:11;6.00;99.90
935;DHT22;454;53.254;10.400;2023-02-01T12:45:42;5.80;99.90
935;DHT22;454;53.254;10.400;2023-02-01T12:48:25;5.60;99.90
935;DHT22;454;53.254;10.400;2023-02-01T12:50:55;5.50;99.90
935;DHT22;454;53.254;10.400;2023-02-01T12:53:27;5.40;99.90
935;DHT22;454;53.254;10.400;2023-02-01T12:56:00;5.30;99.90
935;DHT22;454;53.254;10.400;2023-02-01T12:58:35;5.20;99.90
935;DHT22;454;53.254;10.400;2023-02-01T13:01:07;5.10;99.90
935;DHT22;454;53.254;10.400;2023-02-01T13:03:39;5.10;99.90
935;DHT22;454;53.254;10.400;2023-02-01T13:06:10;4.90;99.90
935;DHT22;454;53.254;10.400;2023-02-01T13:08:45;4.90;99.90
935;DHT22;454;53.254;10.400;2023-02-01T13:11:18;4.80;99.90
935;DHT22;454;53.254;10.400;2023-02-01T13:13:56;4.70;99.90
935;DHT22;454;53.254;10.400;2023-02-01T13:16:27;4.50;99.90
935;DHT22;454;53.254;10.400;2023-02-01T13:19:08;4.40;99.90
935;DHT22;454;53.254;10.400;2023-02-01T13:21:39;4.30;99.90
935;DHT22;454;53.254;10.400;2023-02-01T13:24:20;4.20;99.90
935;DHT22;454;53.254;10.400;2023-02-01T13:26:53;4.10;99.90
935;DHT22;454;53.254;10.400;2023-02-01T13:29:20;4.10;99.90
935;DHT22;454;53.254;10.400;2023-02-01T13:31:57;4.10;99.90
935;DHT22;454;53.254;10.400;2023-02-01T13:35:00;4.10;99.90
935;DHT22;454;53.254;10.400;2023-02-01T13:37:47;4.00;99.90
935;DHT22;454;53.254;10.400;2023-02-01T13:40:33;4.00;99.90
935;DHT22;454;53.254;10.400;2023-02-01T13:43:07;4.00;99.90
935;DHT22;454;53.254;10.400;2023-02-01T13:45:43;4.00;99.90
935;DHT22;454;53.254;10.400;2023-02-01T13:48:19;4.10;99.90
935;DHT22;454;53.254;10.400;2023-02-01T13:50:51;4.20;99.90
935;DHT22;454;53.254;10.400;2023-02-01T13:53:22;4.30;99.90
935;DHT22;454;53.254;10.400;2023-02-01T13:55:55;4.40;99.90
935;DHT22;454;53.254;10.400;2023-02-01T13:58:31;4.40;99.90
935;DHT22;454;53.254;10.400;2023-02-01T14:01:31;4.40;99.90
935;DHT22;454;53.254;10.400;2023-02-01T14:03:59;4.40;99.90
935;DHT22;454;53.254;10.400;2023-02-01T14:06:45;4.40;99.90
935;DHT22;454;53.254;10.400;2023-02-01T14:09:16;4.40;99.90
935;DHT22;454;53.254;10.400;2023-02-01T14:11:45;4.40;99.90
935;DHT22;454;53.254;10.400;2023-02-01T14:14:40;4.40;99.90
935;DHT22;454;53.254;10.400;2023-02-01T14:17:34;4.40;99.90
935;DHT22;454;53.254;10.400;2023-02-01T14:23:28;4.30;99.90
935;DHT22;454;53.254;10.400;2023-02-01T14:26:17;4.30;99.90
935;DHT22;454;53.254;10.400;2023-02-01T14:28:49;4.30;99.90
935;DHT22;454;53.254;10.400;2023-02-01T14:31:37;4.40;99.90
935;DHT22;454;53.254;10.400;2023-02-01T14:34:13;4.40;99.90
935;DHT22;454;53.254;10.400;2023-02-01T14:36:45;4.50;99.90
935;DHT22;454;53.254;10.400;2023-02-01T14:39:29;4.50;99.90
935;DHT22;454;53.254;10.400;2023-02-01T14:41:59;4.50;99.90
935;DHT22;454;53.254;10.400;2023-02-01T14:44:33;4.60;99.90
935;DHT22;454;53.254;10.400;2023-02-01T14:47:10;4.60;99.90
935;DHT22;454;53.254;10.400;2023-02-01T14:49:42;4.60;99.90
935;DHT22;454;53.254;10.400;2023-02-01T14:52:18;4.70;99.90
935;DHT22;454;53.254;10.400;2023-02-01T14:54:51;4.70;99.90
935;DHT22;454;53.254;10.400;2023-02-01T14:57:21;4.70;99.90
935;DHT22;454;53.254;10.400;2023-02-01T14:59:53;4.70;99.90
935;DHT22;454;53.254;10.400;2023-02-01T15:02:26;4.80;99.90
935;DHT22;454;53.254;10.400;2023-02-01T15:04:56;4.80;99.90
935;DHT22;454;53.254;10.400;2023-02-01T15:07:24;4.80;99.90
935;DHT22;454;53.254;10.400;2023-02-01T15:09:54;4.80;99.90
935;DHT22;454;53.254;10.400;2023-02-01T15:12:24;4.70;99.90
935;DHT22;454;53.254;10.400;2023-02-01T15:15:13;4.60;99.90
935;DHT22;454;53.254;10.400;2023-02-01T15:17:50;4.50;99.90
935;DHT22;454;53.254;10.400;2023-02-01T15:20:19;4.40;99.90
935;DHT22;454;53.254;10.400;2023-02-01T15:22:54;4.40;99.90
935;DHT22;454;53.254;10.400;2023-02-01T15:25:22;4.40;99.90
935;DHT22;454;53.254;10.400;2023-02-01T15:27:49;4.40;99.90
935;DHT22;454;53.254;10.400;2023-02-01T15:30:18;4.30;99.90
935;DHT22;454;53.254;10.400;2023-02-01T15:32:48;4.40;99.90
935;DHT22;454;53.254;10.400;2023-02-01T15:35:38;4.40;99.90
935;DHT22;454;53.254;10.400;2023-02-01T15:38:30;4.40;99.90
935;DHT22;454;53.254;10.400;2023-02-01T15:41:00;4.40;99.90
935;DHT22;454;53.254;10.400;2023-02-01T15:43:28;4.40;99.90
935;DHT22;454;53.254;10.400;2023-02-01T15:45:57;4.40;99.90
935;DHT22;454;53.254;10.400;2023-02-01T15:48:26;4.30;99.90
935;DHT22;454;53.254;10.400;2023-02-01T15:50:54;4.40;99.90
935;DHT22;454;53.254;10.400;2023-02-01T15:53:24;4.30;99.90
935;DHT22;454;53.254;10.400;2023-02-01T15:55:57;4.30;99.90
935;DHT22;454;53.254;10.400;2023-02-01T15:58:25;4.30;99.90
935;DHT22;454;53.254;10.400;2023-02-01T16:00:55;4.30;99.90
935;DHT22;454;53.254;10.400;2023-02-01T16:03:33;4.30;99.90
935;DHT22;454;53.254;10.400;2023-02-01T16:06:04;4.20;99.90
935;DHT22;454;53.254;10.400;2023-02-01T16:08:31;4.20;99.90
935;DHT22;454;53.254;10.400;2023-02-01T16:11:10;4.20;99.90
935;DHT22;454;53.254;10.400;2023-02-01T16:13:40;4.20;99.90
935;DHT22;454;53.254;10.400;2023-02-01T16:16:07;4.20;99.90
935;DHT22;454;53.254;10.400;2023-02-01T16:18:40;4.20;99.90
935;DHT22;454;53.254;10.400;2023-02-01T16:21:08;4.30;99.90
935;DHT22;454;53.254;10.400;2023-02-01T16:23:35;4.30;99.90
935;DHT22;454;53.254;10.400;2023-02-01T16:26:02;4.30;99.90
935;DHT22;454;53.254;10.400;2023-02-01T16:28:29;4.30;99.90
935;DHT22;454;53.254;10.400;2023-02-01T16:30:56;4.40;99.90
935;DHT22;454;53.254;10.400;2023-02-01T16:33:23;4.40;99.90
935;DHT22;454;53.254;10.400;2023-02-01T16:35:52;4.40;99.90
935;DHT22;454;53.254;10.400;2023-02-01T16:38:25;4.40;99.90
935;DHT22;454;53.254;10.400;2023-02-01T16:40:52;4.40;99.90
935;DHT22;454;53.254;10.400;2023-02-01T16:43:20;4.50;99.90
935;DHT22;454;53.254;10.400;2023-02-01T16:45:48;4.50;99.90
935;DHT22;454;53.254;10.400;2023-02-01T16:48:20;4.50;99.90
935;DHT22;454;53.254;10.400;2023-02-01T16:50:52;4.50;99.90
935;DHT22;454;53.254;10.400;2023-02-01T16:53:20;4.50;99.90
935;DHT22;454;53.254;10.400;2023-02-01T16:55:46;4.50;99.90
935;DHT22;454;53.254;10.400;2023-02-01T16:58:15;4.50;99.90
935;DHT22;454;53.254;10.400;2023-02-01T17:00:42;4.50;99.90
935;DHT22;454;53.254;10.400;2023-02-01T17:03:10;4.50;99.90
935;DHT22;454;53.254;10.400;2023-02-01T17:05:43;4.60;99.90
935;DHT22;454;53.254;10.400;2023-02-01T17:08:15;4.60;99.90
935;DHT22;454;53.254;10.400;2023-02-01T17:10:44;4.60;99.90
935;DHT22;454;53.254;10.400;2023-02-01T17:13:13;4.70;99.90
935;DHT22;454;53.254;10.400;2023-02-01T17:15:48;4.70;99.90
935;DHT22;454;53.254;10.400;2023-02-01T17:18:17;4.70;99.90
935;DHT22;454;53.254;10.400;2023-02-01T17:20:44;4.70;99.90
935;DHT22;454;53.254;10.400;2023-02-01T17:23:14;4.80;99.90
935;DHT22;454;53.254;10.400;2023-02-01T17:25:41;4.70;99.90
935;DHT22;454;53.254;10.400;2023-02-01T17:28:08;4.80;99.90
935;DHT22;454;53.254;10.400;2023-02-01T17:30:36;4.80;99.90
935;DHT22;454;53.254;10.400;2023-02-01T17:33:04;4.80;99.90
935;DHT22;454;53.254;10.400;2023-02-01T17:35:37;4.80;99.90
935;DHT22;454;53.254;10.400;2023-02-01T17:38:08;4.90;99.90
935;DHT22;454;53.254;10.400;2023-02-01T17:40:38;4.90;99.90
935;DHT22;454;53.254;10.400;2023-02-01T17:43:05;4.90;99.90
935;DHT22;454;53.254;10.400;2023-02-01T17:45:37;4.90;99.90
935;DHT22;454;53.254;10.400;2023-02-01T17:48:06;4.90;99.90
935;DHT22;454;53.254;10.400;2023-02-01T17:50:35;4.90;99.90
935;DHT22;454;53.254;10.400;2023-02-01T17:53:03;5.00;99.90
935;DHT22;454;53.254;10.400;2023-02-01T17:55:35;5.00;99.90
935;DHT22;454;53.254;10.400;2023-02-01T17:58:03;5.00;99.90
935;DHT22;454;53.254;10.400;2023-02-01T18:00:30;5.00;99.90
935;DHT22;454;53.254;10.400;2023-02-01T18:02:57;5.00;99.90
935;DHT22;454;53.254;10.400;2023-02-01T18:05:27;5.00;99.90
935;DHT22;454;53.254;10.400;2023-02-01T18:07:55;4.90;99.90
935;DHT22;454;53.254;10.400;2023-02-01T18:10:21;4.90;99.90
935;DHT22;454;53.254;10.400;2023-02-01T18:12:48;4.90;99.90
935;DHT22;454;53.254;10.400;2023-02-01T18:15:18;5.00;99.90
935;DHT22;454;53.254;10.400;2023-02-01T18:17:45;5.00;99.90
935;DHT22;454;53.254;10.400;2023-02-01T18:20:14;5.00;99.90
935;DHT22;454;53.254;10.400;2023-02-01T18:22:41;4.90;99.90
935;DHT22;454;53.254;10.400;2023-02-01T18:25:14;4.90;99.90
935;DHT22;454;53.254;10.400;2023-02-01T18:27:42;4.90;99.90
935;DHT22;454;53.254;10.400;2023-02-01T18:30:11;4.80;99.90
935;DHT22;454;53.254;10.400;2023-02-01T18:32:40;4.80;99.90
935;DHT22;454;53.254;10.400;2023-02-01T18:35:16;4.80;99.90
935;DHT22;454;53.254;10.400;2023-02-01T18:37:44;4.80;99.90
935;DHT22;454;53.254;10.400;2023-02-01T18:40:14;4.70;99.90
935;DHT22;454;53.254;10.400;2023-02-01T18:42:41;4.70;99.90
935;DHT22;454;53.254;10.400;2023-02-01T18:45:19;4.60;99.90
935;DHT22;454;53.254;10.400;2023-02-01T18:47:47;4.70;99.90
935;DHT22;454;53.254;10.400;2023-02-01T18:50:15;4.60;99.90
935;DHT22;454;53.254;10.400;2023-02-01T18:52:42;4.60;99.90
935;DHT22;454;53.254;10.400;2023-02-01T18:55:09;4.60;99.90
935;DHT22;454;53.254;10.400;2023-02-01T18:57:37;4.60;99.90
935;DHT22;454;53.254;10.400;2023-02-01T19:00:07;4.50;99.90
935;DHT22;454;53.254;10.400;2023-02-01T19:02:34;4.50;99.90
935;DHT22;454;53.254;10.400;2023-02-01T19:05:05;4.50;99.90
935;DHT22;454;53.254;10.400;2023-02-01T19:07:32;4.50;99.90
935;DHT22;454;53.254;10.400;2023-02-01T19:09:59;4.50;99.90
935;DHT22;454;53.254;10.400;2023-02-01T19:12:26;4.50;99.90
935;DHT22;454;53.254;10.400;2023-02-01T19:14:53;4.50;99.90
935;DHT22;454;53.254;10.400;2023-02-01T19:17:19;4.50;99.90
935;DHT22;454;53.254;10.400;2023-02-01T19:19:46;4.50;99.90
935;DHT22;454;53.254;10.400;2023-02-01T19:22:16;4.50;99.90
935;DHT22;454;53.254;10.400;2023-02-01T19:24:43;4.50;99.90
935;DHT22;454;53.254;10.400;2023-02-01T19:27:10;4.50;99.90
935;DHT22;454;53.254;10.400;2023-02-01T19:29:37;4.50;99.90
935;DHT22;454;53.254;10.400;2023-02-01T19:32:05;4.50;99.90
935;DHT22;454;53.254;10.400;2023-02-01T19:34:32;4.50;99.90
935;DHT22;454;53.254;10.400;2023-02-01T19:36:59;4.50;99.90
935;DHT22;454;53.254;10.400;2023-02-01T19:39:27;4.50;99.90
935;DHT22;454;53.254;10.400;2023-02-01T19:41:54;4.50;99.90
935;DHT22;454;53.254;10.400;2023-02-01T19:44:22;4.50;99.90
935;DHT22;454;53.254;10.400;2023-02-01T19:46:49;4.60;99.90
935;DHT22;454;53.254;10.400;2023-02-01T19:49:16;4.60;99.90
935;DHT22;454;53.254;10.400;2023-02-01T19:51:42;4.60;99.90
935;DHT22;454;53.254;10.400;2023-02-01T19:54:10;4.60;99.90
935;DHT22;454;53.254;10.400;2023-02-01T19:56:38;4.70;99.90
935;DHT22;454;53.254;10.400;2023-02-01T19:59:04;4.70;99.90
935;DHT22;454;53.254;10.400;2023-02-01T20:01:31;4.70;99.90
935;DHT22;454;53.254;10.400;2023-02-01T20:03:59;4.70;99.90
935;DHT22;454;53.254;10.400;2023-02-01T20:06:28;4.70;99.90
935;DHT22;454;53.254;10.400;2023-02-01T20:08:55;4.70;99.90
935;DHT22;454;53.254;10.400;2023-02-01T20:11:22;4.80;99.90
935;DHT22;454;53.254;10.400;2023-02-01T20:13:52;4.80;99.90
935;DHT22;454;53.254;10.400;2023-02-01T20:16:19;4.80;99.90
935;DHT22;454;53.254;10.400;2023-02-01T20:18:46;4.90;99.90
935;DHT22;454;53.254;10.400;2023-02-01T20:21:14;4.90;99.90
935;DHT22;454;53.254;10.400;2023-02-01T20:23:41;5.00;99.90
935;DHT22;454;53.254;10.400;2023-02-01T20:26:09;5.10;99.90
935;DHT22;454;53.254;10.400;2023-02-01T20:28:37;5.10;99.90
935;DHT22;454;53.254;10.400;2023-02-01T20:31:06;5.10;99.90
935;DHT22;454;53.254;10.400;2023-02-01T20:33:35;5.20;99.90
935;DHT22;454;53.254;10.400;2023-02-01T20:36:03;5.20;99.90
935;DHT22;454;53.254;10.400;2023-02-01T20:38:30;5.20;99.90
935;DHT22;454;53.254;10.400;2023-02-01T20:41:04;5.20;99.90
935;DHT22;454;53.254;10.400;2023-02-01T20:43:31;5.10;99.90
935;DHT22;454;53.254;10.400;2023-02-01T20:45:58;5.20;99.90
935;DHT22;454;53.254;10.400;2023-02-01T20:48:27;5.10;99.90
935;DHT22;454;53.254;10.400;2023-02-01T20:50:55;5.10;99.90
935;DHT22;454;53.254;10.400;2023-02-01T20:53:23;5.10;99.90
935;DHT22;454;53.254;10.400;2023-02-01T20:55:51;5.00;99.90
935;DHT22;454;53.254;10.400;2023-02-01T20:58:18;5.00;99.90
935;DHT22;454;53.254;10.400;2023-02-01T21:00:45;5.10;99.90
935;DHT22;454;53.254;10.400;2023-02-01T21:03:13;5.10;99.90
935;DHT22;454;53.254;10.400;2023-02-01T21:05:45;5.20;99.90
935;DHT22;454;53.254;10.400;2023-02-01T21:08:12;5.30;99.90
935;DHT22;454;53.254;10.400;2023-02-01T21:10:40;5.30;99.90
935;DHT22;454;53.254;10.400;2023-02-01T21:13:07;5.30;99.90
935;DHT22;454;53.254;10.400;2023-02-01T21:15:34;5.30;99.90
935;DHT22;454;53.254;10.400;2023-02-01T21:18:02;5.30;99.90
935;DHT22;454;53.254;10.400;2023-02-01T21:20:29;5.40;99.90
935;DHT22;454;53.254;10.400;2023-02-01T21:22:58;5.40;99.90
935;DHT22;454;53.254;10.400;2023-02-01T21:25:24;5.40;99.90
935;DHT22;454;53.254;10.400;2023-02-01T21:27:51;5.50;99.90
935;DHT22;454;53.254;10.400;2023-02-01T21:30:18;5.50;99.90
935;DHT22;454;53.254;10.400;2023-02-01T21:32:44;5.50;99.90
935;DHT22;454;53.254;10.400;2023-02-01T21:35:15;5.60;99.90
935;DHT22;454;53.254;10.400;2023-02-01T21:37:42;5.60;99.90
935;DHT22;454;53.254;10.400;2023-02-01T21:40:11;5.60;99.90
935;DHT22;454;53.254;10.400;2023-02-01T21:42:39;5.70;99.90
935;DHT22;454;53.254;10.400;2023-02-01T21:45:08;5.70;99.90
935;DHT22;454;53.254;10.400;2023-02-01T21:47:35;5.70;99.90
935;DHT22;454;53.254;10.400;2023-02-01T21:50:04;5.70;99.90
935;DHT22;454;53.254;10.400;2023-02-01T21:52:32;5.70;99.90
935;DHT22;454;53.254;10.400;2023-02-01T21:54:59;5.70;99.90
935;DHT22;454;53.254;10.400;2023-02-01T21:57:28;5.80;99.90
935;DHT22;454;53.254;10.400;2023-02-01T21:59:55;5.80;99.90
